Time;durP1;ratioP1;P1;durP2;ratioP2;P2;SDS_P1;SDS_P2;PMS_P1;PMS_P2;Temp;Humidity;BMP_temperature;BMP_pressure;BME280_temperature;BME280_humidity;BME280_pressure;Samples;Min_cycle;Max_cycle;Signal;HPM_P1;HPM_P2
2024/02/02 00:01:53;;;;;;;9.68;6.03;;;22.90;33.80;;;;;;5035995;28;20757;-49
2024/02/02 00:04:21;;;;;;;10.35;6.20;;;22.90;33.80;;;;;;5035503;28;20242;-55
2024/02/02 00:06:49;;;;;;;12.40;6.25;;;22.90;33.80;;;;;;5035385;28;20220;-50
2024/02/02 00:09:16;;;;;;;11.98;6.53;;;22.90;33.80;;;;;;5035363;28;20213;-50
2024/02/02 00:11:43;;;;;;;8.88;5.80;;;22.90;33.80;;;;;;5035339;28;20224;-51
2024/02/02 00:14:10;;;;;;;9.35;5.93;;;22.90;33.80;;;;;;5035538;28;20196;-48
2024/02/02 00:16:37;;;;;;;9.23;6.53;;;22.80;33.70;;;;;;5035613;28;20224;-52
2024/02/02 00:19:05;;;;;;;12.00;6.47;;;22.70;33.70;;;;;;5035604;28;20193;-50
2024/02/02 00:21:33;;;;;;;9.77;6.03;;;22.70;33.70;;;;;;5035142;28;20217;-50
2024/02/02 00:24:00;;;;;;;10.35;5.93;;;22.70;33.70;;;;;;5035498;28;20200;-51
2024/02/02 00:26:28;;;;;;;11.63;5.95;;;22.60;33.70;;;;;;5035521;28;20280;-52
2024/02/02 00:28:55;;;;;;;9.82;6.10;;;22.60;33.70;;;;;;5035121;28;20304;-52
2024/02/02 00:31:22;;;;;;;8.50;6.00;;;22.60;33.70;;;;;;5035390;28;20216;-52
2024/02/02 00:33:49;;;;;;;11.02;6.22;;;22.60;33.70;;;;;;5034869;28;20701;-51
2024/02/02 00:36:16;;;;;;;8.45;5.72;;;22.50;33.60;;;;;;5034667;28;20212;-51
2024/02/02 00:38:45;;;;;;;9.38;5.65;;;22.50;33.70;;;;;;5034886;28;20223;-50
2024/02/02 00:41:12;;;;;;;11.15;6.45;;;22.50;33.60;;;;;;5035126;28;20274;-51
2024/02/02 00:43:39;;;;;;;8.73;5.50;;;22.60;33.60;;;;;;5034471;28;20722;-52
2024/02/02 00:46:06;;;;;;;10.95;5.97;;;22.60;33.60;;;;;;5034792;28;20227;-52
2024/02/02 00:48:34;;;;;;;10.98;5.68;;;22.60;33.60;;;;;;5034813;28;20231;-48
2024/02/02 00:51:01;;;;;;;11.75;6.20;;;22.70;33.70;;;;;;5034277;28;20252;-48
2024/02/02 00:53:27;;;;;;;9.93;6.15;;;22.70;33.70;;;;;;5035096;28;20270;-56
2024/02/02 00:55:56;;;;;;;11.18;5.38;;;22.70;33.70;;;;;;5034909;28;20223;-52
2024/02/02 00:58:23;;;;;;;9.70;6.03;;;22.80;33.70;;;;;;5034533;28;20259;-50
2024/02/02 01:00:50;;;;;;;9.93;5.53;;;22.80;33.70;;;;;;5034772;28;20228;-48
2024/02/02 01:03:18;;;;;;;9.75;5.32;;;22.80;33.60;;;;;;5034805;28;20185;-51
2024/02/02 01:05:45;;;;;;;9.77;5.28;;;22.80;33.50;;;;;;5034134;28;20252;-50
2024/02/02 01:08:12;;;;;;;9.05;5.63;;;22.90;33.40;;;;;;5034027;28;20189;-50
2024/02/02 01:10:38;;;;;;;8.50;5.22;;;22.90;33.30;;;;;;5034713;28;20282;-53
2024/02/02 01:13:07;;;;;;;8.55;5.57;;;22.90;33.20;;;;;;5034265;28;20188;-54
2024/02/02 01:15:34;;;;;;;9.07;5.40;;;22.90;33.10;;;;;;5034192;28;20701;-50
2024/02/02 01:18:02;;;;;;;7.68;5.32;;;22.90;33.20;;;;;;5034124;28;20208;-50
2024/02/02 01:20:29;;;;;;;8.77;4.90;;;22.90;33.20;;;;;;5034096;28;20195;-50
2024/02/02 01:22:56;;;;;;;7.65;5.10;;;22.80;33.20;;;;;;5034156;28;20246;-48
2024/02/02 01:25:23;;;;;;;6.55;4.97;;;22.80;33.30;;;;;;5033978;28;20658;-51
2024/02/02 01:27:50;;;;;;;7.95;4.97;;;22.70;33.30;;;;;;5034000;28;20199;-51
2024/02/02 01:30:20;;;;;;;6.10;4.78;;;22.70;33.50;;;;;;5034050;28;20639;-51
2024/02/02 01:32:47;;;;;;;7.55;4.95;;;22.60;33.50;;;;;;5034236;28;20262;-50
2024/02/02 01:35:17;;;;;;;8.15;5.55;;;22.60;33.50;;;;;;5033836;28;20220;-54
2024/02/02 01:37:44;;;;;;;7.95;4.90;;;22.50;33.50;;;;;;5034020;28;20220;-48
2024/02/02 01:40:13;;;;;;;7.22;4.80;;;22.50;33.50;;;;;;5034193;28;20278;-53
2024/02/02 01:42:40;;;;;;;8.73;5.22;;;22.50;33.50;;;;;;5033429;28;20223;-49
2024/02/02 01:45:07;;;;;;;8.43;4.82;;;22.50;33.50;;;;;;5033980;28;20224;-55
2024/02/02 01:47:36;;;;;;;7.13;4.85;;;22.50;33.50;;;;;;5034164;28;20303;-50
2024/02/02 01:50:03;;;;;;;9.32;5.07;;;22.60;33.60;;;;;;5031412;28;20286;-55
2024/02/02 01:52:31;;;;;;;7.70;4.60;;;22.60;33.50;;;;;;5044555;28;20215;-49
2024/02/02 01:54:58;;;;;;;7.07;4.20;;;22.60;33.50;;;;;;5053268;28;20191;-48
2024/02/02 01:57:25;;;;;;;8.77;4.70;;;22.70;33.50;;;;;;5053379;28;20215;-53
2024/02/02 01:59:53;;;;;;;8.30;4.82;;;22.70;33.40;;;;;;5053565;28;20621;-51
2024/02/02 02:02:20;;;;;;;7.45;4.35;;;22.70;33.30;;;;;;5053939;28;20215;-51
2024/02/02 02:04:48;;;;;;;6.20;4.25;;;22.80;33.30;;;;;;5053122;28;20207;-55
2024/02/02 02:07:16;;;;;;;7.28;4.18;;;22.80;33.20;;;;;;5053596;28;20290;-54
2024/02/02 02:09:43;;;;;;;9.07;4.22;;;22.80;33.20;;;;;;5052952;28;20211;-57
2024/02/02 02:12:11;;;;;;;8.00;4.38;;;22.80;33.10;;;;;;5052988;28;20269;-54
2024/02/02 02:14:38;;;;;;;6.43;4.05;;;22.90;33.10;;;;;;5053322;28;20196;-50
2024/02/02 02:17:05;;;;;;;6.60;4.10;;;22.80;32.90;;;;;;5053042;28;20215;-50
2024/02/02 02:19:34;;;;;;;6.63;4.20;;;22.90;32.90;;;;;;5051913;28;20254;-48
2024/02/02 02:22:03;;;;;;;6.72;4.10;;;22.90;32.90;;;;;;5052849;28;20640;-49
2024/02/02 02:24:30;;;;;;;7.72;4.05;;;22.90;32.90;;;;;;5053208;28;20632;-55
2024/02/02 02:26:57;;;;;;;7.75;4.10;;;22.90;32.90;;;;;;5052823;28;20265;-54
2024/02/02 02:29:24;;;;;;;7.55;4.03;;;22.80;32.90;;;;;;5052647;28;20537;-50
2024/02/02 02:31:55;;;;;;;5.75;3.80;;;22.70;32.90;;;;;;5053059;28;20223;-55
2024/02/02 02:34:23;;;;;;;10.30;4.03;;;22.70;33.00;;;;;;5052596;28;20270;-50
2024/02/02 02:36:50;;;;;;;6.53;3.83;;;22.60;33.00;;;;;;5052443;28;20219;-55
2024/02/02 02:39:19;;;;;;;6.32;3.97;;;22.60;33.10;;;;;;5052920;28;20604;-56
2024/02/02 02:41:46;;;;;;;7.35;4.00;;;22.60;33.20;;;;;;5052053;28;20614;-50
2024/02/02 02:44:13;;;;;;;7.45;4.28;;;22.50;33.20;;;;;;5052837;28;20249;-51
2024/02/02 02:46:41;;;;;;;8.55;3.92;;;22.50;33.20;;;;;;5052600;28;20216;-51
2024/02/02 02:49:08;;;;;;;6.60;3.97;;;22.50;33.20;;;;;;5052192;28;20196;-52
2024/02/02 02:51:35;;;;;;;5.60;3.75;;;22.50;33.30;;;;;;5052639;28;20231;-53
2024/02/02 02:54:02;;;;;;;6.75;3.55;;;22.50;33.20;;;;;;5052460;28;20616;-52
2024/02/02 02:56:30;;;;;;;7.75;4.10;;;22.60;33.20;;;;;;5052259;28;20216;-52
2024/02/02 02:58:57;;;;;;;6.88;3.80;;;22.60;33.10;;;;;;5052290;28;20191;-50
2024/02/02 03:01:24;;;;;;;8.10;4.22;;;22.60;33.10;;;;;;5052511;28;20220;-52
2024/02/02 03:03:51;;;;;;;7.15;3.67;;;22.60;33.10;;;;;;5052205;28;20254;-50
2024/02/02 03:06:18;;;;;;;5.43;3.40;;;22.60;33.00;;;;;;5052358;28;20281;-50
2024/02/02 03:08:45;;;;;;;7.18;3.50;;;22.70;33.00;;;;;;5052479;28;20206;-53
2024/02/02 03:11:13;;;;;;;7.03;3.70;;;22.70;32.90;;;;;;5051947;28;20861;-56
2024/02/02 03:13:41;;;;;;;7.15;3.80;;;22.80;33.00;;;;;;5052388;28;20188;-55
2024/02/02 03:16:08;;;;;;;5.35;3.75;;;22.80;32.90;;;;;;5052170;28;20215;-52
2024/02/02 03:18:36;;;;;;;6.82;3.88;;;22.80;32.90;;;;;;5051620;28;20604;-50
2024/02/02 03:21:03;;;;;;;7.97;3.45;;;22.80;32.90;;;;;;5052223;28;20273;-51
2024/02/02 03:23:30;;;;;;;8.10;3.90;;;22.80;32.80;;;;;;5052313;28;20187;-51
2024/02/02 03:25:57;;;;;;;7.80;3.50;;;22.80;32.70;;;;;;5051802;28;20215;-53
2024/02/02 03:28:24;;;;;;;7.30;3.95;;;22.90;32.70;;;;;;5051905;28;20603;-54
2024/02/02 03:30:53;;;;;;;5.93;3.67;;;22.90;32.70;;;;;;5054246;28;20593;-49
2024/02/02 03:33:20;;;;;;;6.55;3.40;;;22.80;32.60;;;;;;5055819;28;20642;-49
2024/02/02 03:35:47;;;;;;;5.80;3.28;;;22.70;32.60;;;;;;5056247;28;20195;-54
2024/02/02 03:38:14;;;;;;;5.47;3.65;;;22.70;32.70;;;;;;5056365;28;20187;-55
2024/02/02 03:40:41;;;;;;;6.40;3.75;;;22.70;32.80;;;;;;5055807;28;20253;-55
2024/02/02 03:43:10;;;;;;;5.20;3.47;;;22.60;32.80;;;;;;5056030;28;20195;-52
2024/02/02 03:45:37;;;;;;;6.15;3.30;;;22.60;32.90;;;;;;5056055;28;20198;-51
2024/02/02 03:48:06;;;;;;;6.78;3.53;;;22.50;32.90;;;;;;5055737;28;20192;-53
2024/02/02 03:50:33;;;;;;;7.50;3.15;;;22.50;33.00;;;;;;5055900;28;20326;-56
2024/02/02 03:53:01;;;;;;;7.05;3.10;;;22.50;33.00;;;;;;5055774;28;20861;-49
2024/02/02 03:55:28;;;;;;;5.05;3.00;;;22.50;33.00;;;;;;5055314;28;20213;-52
2024/02/02 03:57:55;;;;;;;6.57;3.72;;;22.50;33.10;;;;;;5055672;28;20219;-51
2024/02/02 04:00:22;;;;;;;7.63;3.35;;;22.50;33.20;;;;;;5055896;28;20196;-56
2024/02/02 04:02:52;;;;;;;5.97;3.47;;;22.60;33.10;;;;;;5055501;28;20215;-56
2024/02/02 04:05:20;;;;;;;6.82;3.40;;;22.60;33.10;;;;;;5055637;28;20567;-51
2024/02/02 04:07:48;;;;;;;6.38;2.88;;;22.60;33.10;;;;;;5055381;28;20761;-52
2024/02/02 04:10:16;;;;;;;6.35;3.20;;;22.60;33.00;;;;;;5055097;28;20731;-52
2024/02/02 04:12:43;;;;;;;6.05;2.75;;;22.70;33.10;;;;;;5055774;28;20574;-53
2024/02/02 04:15:10;;;;;;;8.07;3.17;;;22.70;33.10;;;;;;5055343;28;20712;-52
2024/02/02 04:17:37;;;;;;;5.88;2.95;;;22.70;33.10;;;;;;5054762;28;20767;-49
2024/02/02 04:20:06;;;;;;;5.38;3.10;;;22.70;33.00;;;;;;5055578;28;20268;-50
2024/02/02 04:22:34;;;;;;;5.35;2.83;;;22.80;33.10;;;;;;5055450;28;20230;-59
2024/02/02 04:25:01;;;;;;;5.40;3.15;;;22.80;33.00;;;;;;5055128;28;20192;-50
2024/02/02 04:27:28;;;;;;;7.85;3.00;;;22.80;33.00;;;;;;5055430;28;20216;-49
2024/02/02 04:29:55;;;;;;;5.00;2.97;;;22.80;33.00;;;;;;5054922;28;20246;-51
2024/02/02 04:32:22;;;;;;;4.15;2.53;;;22.80;33.00;;;;;;5054985;28;20269;-51
2024/02/02 04:34:49;;;;;;;5.55;2.80;;;22.80;32.90;;;;;;5055267;28;20615;-50
2024/02/02 04:37:16;;;;;;;5.07;2.67;;;22.80;32.90;;;;;;5054963;28;20639;-53
2024/02/02 04:39:45;;;;;;;5.07;2.58;;;22.80;32.90;;;;;;5054825;28;20258;-50
2024/02/02 04:42:12;;;;;;;4.05;2.42;;;22.80;33.00;;;;;;5053582;28;20273;-49
2024/02/02 04:44:39;;;;;;;4.80;2.78;;;22.70;33.10;;;;;;5054742;28;20183;-55
2024/02/02 04:47:06;;;;;;;4.50;2.42;;;22.70;33.20;;;;;;5054555;28;20211;-54
2024/02/02 04:49:33;;;;;;;5.13;2.60;;;22.60;33.20;;;;;;5054663;28;20239;-51
2024/02/02 04:52:00;;;;;;;5.70;2.55;;;22.60;33.30;;;;;;5054713;28;20227;-54
2024/02/02 04:54:27;;;;;;;5.00;2.78;;;22.60;33.40;;;;;;5054513;28;20192;-49
2024/02/02 04:56:56;;;;;;;4.40;2.60;;;22.50;33.50;;;;;;5054962;28;20235;-49
2024/02/02 04:59:24;;;;;;;4.30;2.67;;;22.50;33.50;;;;;;5054492;28;20246;-51
2024/02/02 05:01:52;;;;;;;5.90;2.75;;;22.50;33.50;;;;;;5054475;28;20211;-54
2024/02/02 05:04:19;;;;;;;5.70;2.50;;;22.50;33.50;;;;;;5054687;28;20191;-55
2024/02/02 05:06:46;;;;;;;4.78;2.58;;;22.50;33.50;;;;;;5054668;28;20216;-50
2024/02/02 05:09:13;;;;;;;5.50;2.67;;;22.60;33.60;;;;;;5054269;28;20248;-49
2024/02/02 05:11:40;;;;;;;3.85;2.53;;;22.60;33.60;;;;;;5054558;28;20288;-53
2024/02/02 05:14:08;;;;;;;5.50;2.55;;;22.60;33.60;;;;;;5054312;28;20671;-52
2024/02/02 05:16:35;;;;;;;3.38;2.13;;;22.70;33.70;;;;;;5054243;28;20212;-53
2024/02/02 05:19:02;;;;;;;3.88;2.53;;;22.70;33.70;;;;;;5054424;28;20219;-48
2024/02/02 05:21:29;;;;;;;4.53;2.25;;;22.70;33.70;;;;;;5054205;28;20216;-53
2024/02/02 05:23:58;;;;;;;3.47;2.50;;;22.80;33.70;;;;;;5053917;28;20260;-58
2024/02/02 05:26:25;;;;;;;3.47;1.90;;;22.80;33.70;;;;;;5054289;28;20219;-46
2024/02/02 05:28:52;;;;;;;4.40;2.33;;;22.80;33.70;;;;;;5054650;28;20222;-53
2024/02/02 05:31:20;;;;;;;3.90;2.63;;;22.80;33.70;;;;;;5053729;28;20235;-52
2024/02/02 05:33:47;;;;;;;2.55;1.90;;;22.80;33.70;;;;;;5054094;28;20188;-55
2024/02/02 05:36:14;;;;;;;3.08;2.03;;;22.80;33.70;;;;;;5054077;28;20309;-54
2024/02/02 05:38:41;;;;;;;4.10;2.20;;;22.80;33.70;;;;;;5053368;28;20645;-52
2024/02/02 05:41:08;;;;;;;4.00;2.25;;;22.90;33.80;;;;;;5054014;28;20273;-56
2024/02/02 05:43:35;;;;;;;2.97;1.98;;;22.90;33.80;;;;;;5053616;28;20195;-51
2024/02/02 05:46:03;;;;;;;3.42;2.20;;;22.90;33.80;;;;;;5053494;28;20228;-53
2024/02/02 05:48:31;;;;;;;3.42;1.75;;;22.80;33.70;;;;;;5054209;28;20184;-55
2024/02/02 05:50:58;;;;;;;2.58;1.80;;;22.80;33.70;;;;;;5053557;28;20293;-54
2024/02/02 05:53:25;;;;;;;3.70;1.90;;;22.70;33.70;;;;;;5053223;28;20261;-50
2024/02/02 05:55:52;;;;;;;3.67;1.90;;;22.70;33.70;;;;;;5053763;28;20246;-53
2024/02/02 05:58:19;;;;;;;3.03;1.90;;;22.60;33.70;;;;;;5053631;28;20188;-51
2024/02/02 06:00:46;;;;;;;3.40;2.00;;;22.60;33.90;;;;;;5053180;28;20192;-51
2024/02/02 06:03:13;;;;;;;2.90;2.00;;;22.60;34.00;;;;;;5053583;28;20191;-55
2024/02/02 06:05:41;;;;;;;2.50;1.60;;;22.50;34.20;;;;;;5053546;28;20233;-48
2024/02/02 06:08:09;;;;;;;3.15;1.88;;;22.60;34.30;;;;;;5053150;28;20261;-52
2024/02/02 06:10:36;;;;;;;2.85;1.70;;;22.50;34.20;;;;;;5053029;28;20192;-50
2024/02/02 06:13:03;;;;;;;2.97;1.95;;;22.60;34.40;;;;;;5053509;28;20222;-50
2024/02/02 06:15:30;;;;;;;3.42;1.83;;;22.60;34.40;;;;;;5052609;28;20573;-50
2024/02/02 06:17:57;;;;;;;3.53;1.88;;;22.70;34.40;;;;;;5053419;28;20281;-52
2024/02/02 06:20:24;;;;;;;2.45;1.65;;;22.70;34.40;;;;;;5053232;28;20265;-49
2024/02/02 06:22:52;;;;;;;2.42;1.75;;;22.70;34.40;;;;;;5052923;28;20223;-54
2024/02/02 06:25:19;;;;;;;3.97;1.83;;;22.80;34.50;;;;;;5052998;28;20196;-55
2024/02/02 06:27:47;;;;;;;2.47;1.67;;;22.70;34.50;;;;;;5053088;28;20306;-49
2024/02/02 06:30:14;;;;;;;1.70;1.30;;;22.80;34.50;;;;;;5052754;28;20187;-54
2024/02/02 06:32:45;;;;;;;2.53;1.50;;;22.80;34.60;;;;;;5052630;28;20227;-50
2024/02/02 06:35:13;;;;;;;2.28;1.60;;;22.80;34.50;;;;;;5052628;28;20202;-52
2024/02/02 06:37:40;;;;;;;2.55;1.42;;;22.80;34.50;;;;;;5052764;28;20219;-49
2024/02/02 06:40:10;;;;;;;2.38;1.45;;;22.80;34.50;;;;;;5052557;28;20603;-55
2024/02/02 06:42:37;;;;;;;1.42;1.27;;;22.90;34.60;;;;;;5052921;28;20257;-52
2024/02/02 06:45:05;;;;;;;2.13;1.50;;;22.90;34.60;;;;;;5052488;28;20394;-54
2024/02/02 06:47:32;;;;;;;1.85;1.50;;;22.90;34.60;;;;;;5052643;28;20219;-53
2024/02/02 06:49:59;;;;;;;3.28;2.08;;;22.90;34.50;;;;;;5052532;28;20228;-51
2024/02/02 06:52:26;;;;;;;2.47;1.55;;;22.90;34.50;;;;;;5052433;28;20287;-47
2024/02/02 06:54:53;;;;;;;2.58;1.45;;;22.90;34.60;;;;;;5052624;28;20191;-49
2024/02/02 06:57:24;;;;;;;2.05;1.30;;;22.80;34.60;;;;;;5052701;28;20216;-53
2024/02/02 06:59:52;;;;;;;2.15;1.60;;;22.80;34.80;;;;;;5052160;28;20214;-53
2024/02/02 07:02:21;;;;;;;1.95;1.45;;;22.70;34.80;;;;;;5052682;28;20216;-55
2024/02/02 07:04:49;;;;;;;2.67;1.42;;;22.70;34.90;;;;;;5051593;28;20653;-52
2024/02/02 07:07:16;;;;;;;1.92;1.30;;;22.60;34.90;;;;;;5052244;28;20227;-52
2024/02/02 07:09:48;;;;;;;1.75;1.38;;;22.60;35.10;;;;;;5052493;28;20646;-49
2024/02/02 07:12:41;;;;;;;2.80;1.58;;;22.60;35.20;;;;;;5052445;28;20239;-51
2024/02/02 07:15:14;;;;;;;3.15;1.65;;;22.50;35.40;;;;;;5051989;28;20242;-49
2024/02/02 07:17:44;;;;;;;2.10;1.50;;;22.50;35.40;;;;;;5052541;28;20219;-51
2024/02/02 07:21:02;;;;;;;1.65;1.40;;;22.50;35.50;;;;;;5050699;28;20191;-48
2024/02/02 07:23:36;;;;;;;2.10;1.50;;;22.50;35.60;;;;;;5043327;28;20199;-52
2024/02/02 07:26:14;;;;;;;1.75;1.48;;;22.50;35.60;;;;;;5051426;28;20183;-52
2024/02/02 07:28:42;;;;;;;2.85;1.77;;;22.60;35.70;;;;;;5051582;28;20227;-50
2024/02/02 07:31:13;;;;;;;2.80;1.63;;;22.60;35.70;;;;;;5050834;28;20203;-53
2024/02/02 07:33:41;;;;;;;2.08;1.40;;;22.60;35.70;;;;;;5051296;28;20735;-52
2024/02/02 07:36:12;;;;;;;2.45;1.60;;;22.60;35.70;;;;;;5051497;28;20191;-50
2024/02/02 07:38:46;;;;;;;3.75;1.75;;;22.60;35.80;;;;;;5051387;28;20184;-54
2024/02/02 07:41:14;;;;;;;2.85;1.38;;;22.60;35.80;;;;;;5048179;28;20571;-52
2024/02/02 07:43:43;;;;;;;2.33;1.50;;;22.60;35.90;;;;;;5050833;28;20721;-52
2024/02/02 07:46:10;;;;;;;2.35;1.58;;;22.60;35.90;;;;;;5048549;28;20195;-53
2024/02/02 07:48:39;;;;;;;2.88;1.63;;;22.60;35.90;;;;;;5039577;28;20199;-52
2024/02/02 07:51:07;;;;;;;3.25;1.30;;;22.60;35.90;;;;;;5043665;28;20326;-51
2024/02/02 07:53:34;;;;;;;2.10;1.40;;;22.60;36.00;;;;;;5050789;28;20195;-49
2024/02/02 07:56:01;;;;;;;2.42;1.30;;;22.60;35.90;;;;;;5042471;28;20341;-52
2024/02/02 07:58:28;;;;;;;2.00;1.67;;;22.60;36.00;;;;;;5049429;28;20200;-53
2024/02/02 08:00:58;;;;;;;3.42;1.35;;;22.60;36.00;;;;;;5050462;28;20199;-54
2024/02/02 08:03:25;;;;;;;2.63;1.55;;;22.60;36.10;;;;;;5051120;28;20219;-55
2024/02/02 08:05:52;;;;;;;3.90;1.52;;;22.50;36.10;;;;;;5040050;28;20576;-52
2024/02/02 08:08:19;;;;;;;1.90;1.30;;;22.50;36.20;;;;;;5044980;28;20216;-54
2024/02/02 08:10:47;;;;;;;1.27;1.10;;;22.50;36.30;;;;;;5049673;28;20196;-53
2024/02/02 08:13:15;;;;;;;2.25;1.40;;;22.50;36.50;;;;;;5048671;28;20232;-52
2024/02/02 08:15:43;;;;;;;1.70;1.30;;;22.50;36.60;;;;;;5049957;28;20646;-50
2024/02/02 08:18:12;;;;;;;2.50;1.45;;;22.50;36.70;;;;;;5051683;28;20258;-56
2024/02/02 08:20:39;;;;;;;1.52;1.20;;;22.50;36.70;;;;;;5048211;28;20242;-53
2024/02/02 08:23:07;;;;;;;1.85;1.15;;;22.40;36.90;;;;;;5050078;28;20227;-54
2024/02/02 08:25:34;;;;;;;3.15;1.23;;;22.40;37.20;;;;;;5052821;28;20184;-54
2024/02/02 08:28:01;;;;;;;5.53;1.10;;;22.50;37.40;;;;;;5051956;28;20337;-56
2024/02/02 08:30:28;;;;;;;1.40;1.05;;;22.60;37.70;;;;;;5052345;28;20276;-53
2024/02/02 08:32:56;;;;;;;2.38;1.20;;;22.60;37.70;;;;;;5052152;28;20300;-54
2024/02/02 08:35:26;;;;;;;3.00;1.30;;;22.70;37.70;;;;;;5051263;28;20245;-56
2024/02/02 08:37:56;;;;;;;5.43;1.20;;;22.70;37.50;;;;;;5050821;28;20250;-56
2024/02/02 08:40:31;;;;;;;4.90;1.17;;;22.80;37.60;;;;;;5050669;28;20195;-56
2024/02/02 08:42:59;;;;;;;7.32;1.10;;;22.70;37.50;;;;;;5052022;28;20269;-54
2024/02/02 08:46:12;;;;;;;3.00;1.00;;;22.80;37.50;;;;;;5051725;28;20246;-54
2024/02/02 08:48:42;;;;;;;2.75;0.77;;;22.80;37.80;;;;;;5016981;28;20239;-54
2024/02/02 08:51:54;;;;;;;3.00;1.17;;;22.80;37.50;;;;;;5051592;28;20282;-54
2024/02/02 08:54:36;;;;;;;1.38;0.90;;;22.80;37.80;;;;;;5052163;28;20196;-54
2024/02/02 08:57:43;;;;;;;2.78;1.17;;;22.80;38.00;;;;;;5050342;28;20229;-52
2024/02/02 09:00:16;;;;;;;1.48;0.90;;;22.80;38.10;;;;;;5015993;28;20245;-55
2024/02/02 09:02:56;;;;;;;1.13;0.90;;;22.80;38.10;;;;;;5051510;28;20720;-55
2024/02/02 09:05:25;;;;;;;2.65;1.17;;;22.80;38.20;;;;;;5050137;28;20306;-54
2024/02/02 09:08:07;;;;;;;1.60;0.90;;;22.80;38.60;;;;;;5050856;28;20223;-53
2024/02/02 09:11:11;;;;;;;4.45;1.23;;;22.70;38.60;;;;;;5050811;28;20196;-54
2024/02/02 09:13:40;;;;;;;2.38;0.90;;;22.70;38.60;;;;;;5038626;28;20243;-55
2024/02/02 09:16:08;;;;;;;1.40;0.82;;;22.60;38.60;;;;;;5046313;28;20283;-53
2024/02/02 09:18:38;;;;;;;0.90;0.75;;;22.60;39.10;;;;;;5049220;28;20215;-54
2024/02/02 09:21:07;;;;;;;4.55;0.98;;;22.60;39.30;;;;;;5048413;28;20245;-53
2024/02/02 09:23:35;;;;;;;1.88;1.00;;;22.60;39.20;;;;;;5045186;28;20235;-54
2024/02/02 09:26:09;;;;;;;3.75;1.02;;;22.50;39.20;;;;;;5047054;28;20203;-54
2024/02/02 09:28:43;;;;;;;1.75;1.20;;;22.50;39.30;;;;;;5047479;28;20229;-54
2024/02/02 09:31:14;;;;;;;1.10;0.80;;;22.50;39.20;;;;;;5048613;28;20187;-54
2024/02/02 09:33:47;;;;;;;1.30;0.82;;;22.60;39.40;;;;;;5046027;28;20235;-55
2024/02/02 09:36:15;;;;;;;2.53;0.93;;;22.60;39.40;;;;;;5049842;28;20200;-53
2024/02/02 09:38:55;;;;;;;1.27;0.80;;;22.70;39.50;;;;;;5046888;28;20220;-54
2024/02/02 09:42:06;;;;;;;2.25;1.00;;;22.80;39.50;;;;;;5030759;28;20205;-53
2024/02/02 09:44:47;;;;;;;1.33;0.93;;;22.80;39.60;;;;;;5036432;28;20203;-52
2024/02/02 09:47:39;;;;;;;4.00;0.80;;;22.80;39.50;;;;;;5032517;28;20227;-54
2024/02/02 09:50:23;;;;;;;2.20;0.90;;;22.80;39.70;;;;;;5026792;28;20227;-52
2024/02/02 09:53:17;;;;;;;1.75;0.93;;;22.90;39.70;;;;;;5039872;28;20230;-53
2024/02/02 09:55:58;;;;;;;3.00;1.10;;;22.90;39.60;;;;;;5033919;28;20257;-50
2024/02/02 09:58:30;;;;;;;5.55;0.70;;;23.00;39.70;;;;;;5036726;28;20655;-58
2024/02/02 10:01:10;;;;;;;6.05;0.68;;;23.00;39.70;;;;;;5039144;28;20273;-58
2024/02/02 10:03:46;;;;;;;1.83;0.63;;;23.00;39.70;;;;;;5041151;28;20227;-52
2024/02/02 10:06:26;;;;;;;4.30;1.10;;;23.00;39.80;;;;;;5036087;28;20782;-55
2024/02/02 10:09:09;;;;;;;4.43;1.00;;;23.00;40.10;;;;;;5039802;28;20223;-56
2024/02/02 10:11:55;;;;;;;2.80;0.80;;;23.10;40.00;;;;;;5039789;28;20199;-56
2024/02/02 10:14:56;;;;;;;1.00;0.80;;;23.00;39.90;;;;;;5034058;28;20200;-50
2024/02/02 10:17:33;;;;;;;8.07;1.20;;;23.00;40.10;;;;;;5037071;28;20261;-51
2024/02/02 10:20:17;;;;;;;3.10;1.00;;;23.00;40.40;;;;;;5035546;28;20199;-51
2024/02/02 10:23:11;;;;;;;4.28;0.93;;;23.00;40.50;;;;;;5037248;28;20284;-57
2024/02/02 10:25:52;;;;;;;3.70;0.73;;;23.00;40.50;;;;;;5038378;28;20195;-52
2024/02/02 10:28:39;;;;;;;1.83;0.85;;;23.00;40.50;;;;;;5039773;28;20305;-51
2024/02/02 10:31:20;;;;;;;3.33;0.90;;;23.00;40.60;;;;;;5041581;28;20207;-56
2024/02/02 10:34:06;;;;;;;2.30;0.82;;;22.90;40.50;;;;;;5042017;28;20827;-49
2024/02/02 10:36:46;;;;;;;2.28;1.00;;;22.90;40.60;;;;;;5036271;28;20199;-56
2024/02/02 10:39:27;;;;;;;5.65;1.00;;;22.90;40.60;;;;;;5041505;28;20284;-57
2024/02/02 10:42:14;;;;;;;1.83;0.90;;;22.90;40.70;;;;;;5042097;28;20203;-51
2024/02/02 10:44:52;;;;;;;4.20;0.88;;;22.90;40.60;;;;;;5034389;28;20752;-51
2024/02/02 10:47:31;;;;;;;1.48;0.90;;;22.90;40.50;;;;;;5043776;28;20895;-57
2024/02/02 10:50:13;;;;;;;5.55;1.20;;;22.90;40.70;;;;;;5045356;28;20338;-47
2024/02/02 10:52:53;;;;;;;2.20;1.00;;;22.90;40.70;;;;;;5046583;28;20231;-58
2024/02/02 10:55:36;;;;;;;3.22;0.80;;;23.00;40.90;;;;;;5046933;28;20253;-58
2024/02/02 10:58:09;;;;;;;1.85;0.93;;;23.00;40.90;;;;;;5044071;28;20224;-52
2024/02/02 11:00:44;;;;;;;2.55;0.90;;;23.10;40.90;;;;;;5045379;28;20276;-56
2024/02/02 11:03:27;;;;;;;3.50;1.00;;;23.10;40.70;;;;;;5045404;28;20266;-51
2024/02/02 11:06:07;;;;;;;4.05;0.90;;;23.10;40.70;;;;;;5046134;28;20245;-52
2024/02/02 11:08:41;;;;;;;4.45;0.82;;;23.10;41.00;;;;;;5041038;28;20222;-53
2024/02/02 11:11:12;;;;;;;3.40;0.80;;;23.10;40.90;;;;;;5046535;28;20742;-47
2024/02/02 11:13:50;;;;;;;5.45;0.82;;;23.10;40.80;;;;;;5038348;28;20278;-52
2024/02/02 11:16:34;;;;;;;1.17;0.63;;;23.10;41.20;;;;;;5045029;28;20195;-48
2024/02/02 11:19:15;;;;;;;4.10;0.80;;;23.10;41.10;;;;;;5045793;28;20230;-49
2024/02/02 11:22:07;;;;;;;1.90;0.73;;;23.00;41.10;;;;;;5048185;28;20198;-53
2024/02/02 11:24:42;;;;;;;5.68;0.90;;;23.00;41.00;;;;;;5047164;28;20278;-52
2024/02/02 11:27:15;;;;;;;4.75;0.90;;;23.00;41.00;;;;;;5047542;28;20201;-49
2024/02/02 11:29:50;;;;;;;4.78;0.82;;;23.00;41.00;;;;;;5047309;28;20230;-52
2024/02/02 11:32:39;;;;;;;1.52;0.90;;;23.00;41.00;;;;;;5044710;28;20199;-52
2024/02/02 11:35:15;;;;;;;4.18;0.80;;;22.90;41.90;;;;;;5043863;28;20209;-50
2024/02/02 11:37:56;;;;;;;3.00;0.80;;;22.80;41.50;;;;;;5047410;28;20210;-49
2024/02/02 11:40:27;;;;;;;1.20;0.90;;;22.60;42.30;;;;;;5047879;28;20200;-52
2024/02/02 11:42:58;;;;;;;1.33;0.82;;;22.50;41.70;;;;;;5038548;28;20258;-51
2024/02/02 11:45:28;;;;;;;4.60;2.00;;;22.50;42.10;;;;;;5047654;28;20192;-50
2024/02/02 11:48:03;;;;;;;6.15;1.50;;;22.40;42.30;;;;;;5047649;28;20250;-52
2024/02/02 11:50:35;;;;;;;2.38;1.20;;;22.30;42.40;;;;;;5047773;28;20661;-52
2024/02/02 11:53:15;;;;;;;1.75;1.10;;;22.20;42.70;;;;;;5051857;28;20269;-51
2024/02/02 11:55:48;;;;;;;1.77;1.10;;;22.10;43.10;;;;;;5052636;28;20207;-52
2024/02/02 11:58:20;;;;;;;2.05;1.20;;;22.00;43.00;;;;;;5054612;28;20717;-52
2024/02/02 12:01:03;;;;;;;2.05;0.90;;;21.90;43.20;;;;;;5050726;28;20277;-53
2024/02/02 12:03:41;;;;;;;2.03;0.80;;;21.90;43.40;;;;;;5050719;28;20765;-51
2024/02/02 12:06:15;;;;;;;1.00;0.80;;;21.90;43.50;;;;;;5051536;28;20234;-53
2024/02/02 12:08:54;;;;;;;1.67;0.80;;;21.90;43.40;;;;;;5039402;28;20222;-53
2024/02/02 12:11:23;;;;;;;1.65;0.70;;;21.90;43.60;;;;;;5046671;28;20207;-53
2024/02/02 12:13:52;;;;;;;2.40;0.85;;;21.80;43.40;;;;;;5050502;28;20243;-52
2024/02/02 12:16:19;;;;;;;2.20;0.75;;;21.80;43.70;;;;;;5051063;28;20191;-52
2024/02/02 12:18:46;;;;;;;1.42;0.77;;;21.80;43.70;;;;;;5048736;28;20265;-50
2024/02/02 12:21:15;;;;;;;1.42;0.82;;;21.80;43.80;;;;;;5050698;28;20207;-52
2024/02/02 12:23:46;;;;;;;1.92;0.65;;;21.80;43.70;;;;;;5050201;28;20306;-51
2024/02/02 12:26:14;;;;;;;1.55;0.80;;;21.70;43.70;;;;;;5050332;28;20253;-51
2024/02/02 12:28:41;;;;;;;1.65;0.70;;;21.80;43.90;;;;;;5040227;28;20846;-53
2024/02/02 12:31:08;;;;;;;3.10;0.60;;;21.80;44.00;;;;;;5050348;28;20195;-48
2024/02/02 12:33:35;;;;;;;2.47;0.90;;;21.80;43.90;;;;;;5049911;28;20713;-49
2024/02/02 12:36:03;;;;;;;2.33;0.65;;;21.70;43.80;;;;;;5050139;28;20192;-53
2024/02/02 12:38:30;;;;;;;1.30;0.63;;;21.70;43.90;;;;;;5050563;28;20220;-51
2024/02/02 12:40:58;;;;;;;1.85;1.08;;;21.70;44.00;;;;;;5049494;28;20199;-51
2024/02/02 12:43:26;;;;;;;1.67;0.70;;;21.60;44.20;;;;;;5050640;28;20288;-50
2024/02/02 12:45:53;;;;;;;1.63;0.70;;;21.50;44.20;;;;;;5045339;28;20223;-49
2024/02/02 12:48:20;;;;;;;1.00;0.60;;;21.50;44.20;;;;;;5049978;28;20641;-48
2024/02/02 12:50:49;;;;;;;1.38;0.80;;;21.50;44.30;;;;;;5050610;28;20309;-53
2024/02/02 12:53:16;;;;;;;0.75;0.50;;;21.50;44.30;;;;;;5050832;28;20231;-52
2024/02/02 12:55:44;;;;;;;1.50;0.60;;;21.50;44.40;;;;;;5050538;28;20222;-51
2024/02/02 12:58:12;;;;;;;0.82;0.63;;;21.50;44.50;;;;;;5048678;28;20200;-47
2024/02/02 13:00:39;;;;;;;2.30;0.70;;;21.50;44.80;;;;;;5034723;28;20200;-52
2024/02/02 13:03:09;;;;;;;1.70;0.68;;;21.50;44.80;;;;;;5043463;28;20199;-53
2024/02/02 13:05:37;;;;;;;1.17;0.50;;;21.50;44.80;;;;;;5039604;28;20199;-53